Fairfax, Minnesota
Current Conditions -  °F | °C
As of 4:53 PM on Thursday 18 Dec 2014 (Local Time) from KRWF Reporting Station
Overcast Overcast  
Wind Chill: 14°   Ceiling: 7500
Heat Index: 22°   Visibility: 10mi
Dew Point: 16°   Wind: 6mph
Humidity: 78%   Direction: 120°ESE
Pressure: 30.23"   Gusts: NA
Location:  44.53°N, 94.72°W
Report Text: KRWF 182253Z AUTO 12005KT 10SM OVC075 M06/M09 A3023 RMK AO2 SLP259 T10561089
Loading
Personal Weather Stations






























Interactive Weather Map New forecast layout! Learn more

10-Day Weather Forecast

Advertisements
Track Severe Weather on mobile